Time;durP1;ratioP1;P1;durP2;ratioP2;P2;SDS_P1;SDS_P2;PMS_P1;PMS_P2;Temp;Humidity;BMP_temperature;BMP_pressure;BME280_temperature;BME280_humidity;BME280_pressure;Samples;Min_cycle;Max_cycle;Signal;HPM_P1;HPM_P2
2021/09/24 00:01:02;;;;;;;;;18.50;16.00;;;;;17.34;60.69;101292.47;5078114;27;45408;-77
2021/09/24 00:03:28;;;;;;;;;18.75;18.00;;;;;17.31;60.85;101294.56;5078018;27;47365;-81
2021/09/24 00:05:53;;;;;;;;;18.25;17.75;;;;;17.34;61.51;101296.94;5077753;27;46211;-81
2021/09/24 00:12:21;;;;;;;;;18.00;15.50;;;;;17.26;60.98;101302.06;5070363;28;46124;-81
2021/09/24 00:14:46;;;;;;;;;14.50;14.00;;;;;17.23;61.59;101297.03;5075293;27;45463;-82
2021/09/24 00:17:13;;;;;;;;;14.75;14.25;;;;;17.14;61.51;101275.69;5078756;27;45799;-82
2021/09/24 00:19:39;;;;;;;;;16.00;15.00;;;;;17.17;61.84;101296.59;5079236;27;45542;-78
2021/09/24 00:22:04;;;;;;;;;13.50;13.00;;;;;17.12;61.65;101287.38;5080051;27;45933;-83
2021/09/24 00:24:30;;;;;;;;;16.75;15.25;;;;;17.11;61.69;101291.03;5080397;27;46415;-77
2021/09/24 00:26:55;;;;;;;;;17.50;16.00;;;;;17.07;61.65;101284.31;5079454;27;47069;-77
2021/09/24 00:29:20;;;;;;;;;18.25;16.00;;;;;16.90;62.19;101263.75;5081637;27;45550;-86
2021/09/24 00:31:46;;;;;;;;;18.25;17.25;;;;;16.96;62.12;101289.69;5085906;28;45833;-79
2021/09/24 00:34:11;;;;;;;;;20.25;17.50;;;;;16.84;62.28;101274.91;5084669;27;46219;-85
2021/09/24 00:36:37;;;;;;;;;16.00;15.00;;;;;16.86;62.59;101287.00;5083279;27;45685;-80
2021/09/24 00:39:02;;;;;;;;;16.75;15.25;;;;;16.82;62.71;101290.91;5080589;27;45667;-84
2021/09/24 00:41:28;;;;;;;;;18.25;16.00;;;;;16.75;62.68;101285.28;5081630;28;45549;-85
2021/09/24 00:43:53;;;;;;;;;20.50;17.50;;;;;16.69;63.04;101280.53;5080650;27;46704;-85
2021/09/24 00:46:19;;;;;;;;;22.00;18.75;;;;;16.69;63.11;101280.53;5081236;27;45576;-84
2021/09/24 00:48:46;;;;;;;;;18.25;16.75;;;;;16.64;62.88;101277.44;5082692;27;46076;-83
2021/09/24 00:51:12;;;;;;;;;21.25;19.25;;;;;16.56;63.30;101268.47;5083178;28;45647;-82
2021/09/24 00:57:03;;;;;;;;;20.75;18.75;;;;;16.55;63.52;101256.19;5084865;28;45531;-79
2021/09/24 00:59:29;;;;;;;;;21.50;19.25;;;;;16.55;63.47;101258.84;5085653;27;45682;-82
2021/09/24 01:01:55;;;;;;;;;15.75;14.75;;;;;16.48;63.56;101250.59;5091787;27;45510;-80
2021/09/24 01:04:21;;;;;;;;;20.25;19.25;;;;;16.47;64.01;101259.47;5092218;27;47393;-80
2021/09/24 01:06:47;;;;;;;;;18.25;16.00;;;;;16.43;64.33;101258.06;5091346;28;46140;-82
2021/09/24 01:09:12;;;;;;;;;17.00;15.25;;;;;16.29;64.36;101240.75;5092077;27;45259;-81
2021/09/24 01:11:38;;;;;;;;;21.00;16.75;;;;;16.27;64.71;101233.91;5088007;28;45502;-85
2021/09/24 01:14:04;;;;;;;;;17.50;14.75;;;;;16.31;64.61;101251.19;5085128;27;46317;-86
2021/09/24 01:16:30;;;;;;;;;17.75;14.75;;;;;16.31;64.61;101249.38;5080780;27;45992;-84
2021/09/24 01:18:55;;;;;;;;;18.50;15.50;;;;;16.30;64.91;101245.03;5078455;28;45611;-79
2021/09/24 01:21:21;;;;;;;;;15.75;13.00;;;;;16.00;65.18;101194.78;5079943;27;45482;-86
2021/09/24 01:27:08;;;;;;;;;15.50;13.75;;;;;16.21;65.53;101237.06;5077069;28;46039;-83
2021/09/24 01:29:33;;;;;;;;;10.00;9.25;;;;;16.21;65.70;101229.13;5077915;27;45482;-86
2021/09/24 01:31:58;;;;;;;;;9.75;9.75;;;;;16.27;65.70;101241.84;5077423;27;45564;-80
2021/09/24 01:34:24;;;;;;;;;13.50;11.50;;;;;16.27;65.57;101252.41;5077223;27;46596;-88
2021/09/24 01:36:49;;;;;;;;;8.50;7.00;;;;;16.27;65.78;101241.84;5077560;27;45977;-88
2021/09/24 01:42:36;;;;;;;;;11.00;10.00;;;;;16.25;66.48;101244.59;5077779;28;45612;-86
2021/09/24 01:45:03;;;;;;;;;14.50;10.75;;;;;16.18;65.84;101230.25;5078517;27;45908;-82
2021/09/24 01:47:29;;;;;;;;;14.00;10.00;;;;;16.06;65.79;101207.47;5077076;28;46150;-84
2021/09/24 01:49:54;;;;;;;;;8.75;8.75;;;;;16.20;65.80;101230.09;5078579;27;45655;-87
2021/09/24 01:52:20;;;;;;;;;12.75;12.00;;;;;16.24;66.32;101232.38;5077515;27;45494;-89
2021/09/24 01:54:45;;;;;;;;;12.00;11.25;;;;;16.27;66.39;101236.53;5077267;27;45590;-89
2021/09/24 01:57:11;;;;;;;;;10.25;10.00;;;;;16.25;65.93;101236.66;5077175;27;45539;-89
2021/09/24 01:59:37;;;;;;;;;10.00;8.50;;;;;16.25;66.18;101231.38;5077353;27;45531;-86
2021/09/24 02:02:03;;;;;;;;;10.00;8.00;;;;;16.25;65.94;101235.81;5077332;27;45513;-85
2021/09/24 02:04:28;;;;;;;;;10.00;8.75;;;;;16.31;66.62;101252.03;5077494;28;46075;-87
2021/09/24 02:06:54;;;;;;;;;9.00;9.00;;;;;16.33;66.47;101249.25;5077688;27;45820;-86
2021/09/24 02:12:41;;;;;;;;;9.50;9.25;;;;;16.36;66.66;101252.47;5066551;28;45700;-86
2021/09/24 02:15:07;;;;;;;;;6.75;5.00;;;;;16.31;66.64;101236.16;5076658;27;46514;-86
2021/09/24 02:17:33;;;;;;;;;11.50;10.00;;;;;16.27;66.53;101228.63;5076908;27;47119;-81
2021/09/24 02:19:58;;;;;;;;;11.00;10.00;;;;;16.38;67.07;101247.06;5078306;27;45708;-87
2021/09/24 02:28:48;;;;;;;;;9.50;9.00;;;;;16.23;66.79;101228.06;5079389;28;45822;-89
2021/09/24 02:31:14;;;;;;;;;10.00;9.50;;;;;16.24;67.42;101227.09;5077663;27;45769;-87
2021/09/24 02:33:41;;;;;;;;;9.25;9.25;;;;;16.32;67.23;101237.84;5077424;27;45664;-89
2021/09/24 02:36:08;;;;;;;;;11.75;10.25;;;;;16.33;67.33;101243.97;5076870;27;46581;-88
2021/09/24 02:38:35;;;;;;;;;10.25;9.25;;;;;16.31;67.17;101235.31;5078005;27;45701;-81
2021/09/24 02:41:02;;;;;;;;;10.00;8.25;;;;;16.33;67.47;101239.50;5078336;27;45583;-84
2021/09/24 02:43:27;;;;;;;;;7.50;7.25;;;;;16.31;67.55;101233.50;5078091;27;45731;-89
2021/09/24 02:45:53;;;;;;;;;8.75;8.00;;;;;16.30;67.79;101221.25;5077636;27;47043;-87
2021/09/24 02:48:18;;;;;;;;;9.25;8.00;;;;;16.36;67.30;101241.03;5078423;27;45559;-89
2021/09/24 02:50:44;;;;;;;;;7.00;6.75;;;;;16.36;67.63;101233.13;5077982;27;46114;-89
2021/09/24 02:53:10;;;;;;;;;7.50;6.75;;;;;16.36;67.98;101236.59;5082102;27;45498;-84
2021/09/24 02:55:35;;;;;;;;;13.25;9.25;;;;;16.29;67.76;101214.31;5081721;27;46460;-88
2021/09/24 02:58:01;;;;;;;;;6.25;6.00;;;;;16.37;67.81;101240.91;5083195;27;45596;-85
2021/09/24 03:00:27;;;;;;;;;7.50;7.25;;;;;16.32;68.20;101223.78;5084160;27;45424;-84
2021/09/24 03:02:53;;;;;;;;;8.00;8.00;;;;;16.39;67.63;101230.22;5084280;27;45676;-88
2021/09/24 03:05:19;;;;;;;;;8.00;8.00;;;;;16.42;67.72;101231.75;5083665;27;45572;-88
2021/09/24 03:07:44;;;;;;;;;8.25;7.00;;;;;16.44;67.91;101230.66;5083719;27;45769;-89
2021/09/24 03:13:31;;;;;;;;;12.50;9.50;;;;;16.47;67.82;101233.03;5075588;28;45709;-86
2021/09/24 03:15:58;;;;;;;;;8.00;6.00;;;;;16.45;67.51;101227.06;5082865;27;46482;-90
2021/09/24 03:18:24;;;;;;;;;8.25;8.00;;;;;16.42;67.61;101213.25;5083126;27;45835;-84
2021/09/24 03:20:51;;;;;;;;;6.00;5.75;;;;;16.50;67.58;101218.72;5078340;28;45615;-90
2021/09/24 03:23:18;;;;;;;;;9.00;8.25;;;;;16.52;67.96;101222.91;5076470;27;45668;-90
2021/09/24 03:25:46;;;;;;;;;6.50;6.50;;;;;16.55;67.26;101225.28;5077503;27;45805;-89
2021/09/24 03:28:11;;;;;;;;;6.00;5.50;;;;;16.59;67.44;101217.94;5076871;27;47114;-87
2021/09/24 03:30:37;;;;;;;;;7.00;6.00;;;;;16.63;67.36;101214.91;5078683;27;45594;-89
2021/09/24 03:33:02;;;;;;;;;7.75;6.00;;;;;16.66;67.59;101205.88;5081738;28;45733;-86
2021/09/24 03:35:28;;;;;;;;;6.25;6.25;;;;;16.63;67.58;101201.66;5083112;27;46352;-90
2021/09/24 03:37:54;;;;;;;;;8.75;7.00;;;;;16.75;67.40;101216.50;5085372;27;45702;-89
2021/09/24 03:43:41;;;;;;;;;5.00;4.75;;;;;16.82;67.28;101208.00;5082635;28;45655;-87
2021/09/24 03:46:06;;;;;;;;;8.50;7.25;;;;;16.79;67.51;101204.66;5082602;27;47520;-90
2021/09/24 03:48:32;;;;;;;;;7.25;6.25;;;;;16.77;66.84;101190.75;5082913;27;45458;-91
2021/09/24 03:50:57;;;;;;;;;4.75;4.50;;;;;16.88;67.44;101208.31;5083707;27;45548;-90
2021/09/24 03:53:23;;;;;;;;;6.75;6.75;;;;;16.91;67.31;101204.56;5082021;27;45538;-89
2021/09/24 03:55:52;;;;;;;;;8.25;6.75;;;;;16.92;67.34;101201.78;5079705;27;46408;-89
2021/09/24 03:58:18;;;;;;;;;5.00;5.00;;;;;16.93;67.42;101198.16;5080106;28;46446;-86
2021/09/24 04:00:43;;;;;;;;;7.00;5.00;;;;;16.92;67.42;101198.28;5080470;27;45538;-86
2021/09/24 04:03:09;;;;;;;;;6.25;5.50;;;;;16.85;67.39;101190.03;5081794;27;45699;-88
2021/09/24 04:05:34;;;;;;;;;5.75;5.00;;;;;16.88;67.62;101188.97;5080571;27;45580;-85
2021/09/24 04:08:00;;;;;;;;;6.00;4.75;;;;;16.93;67.25;101190.22;5081000;27;45513;-88
2021/09/24 04:13:47;;;;;;;;;5.00;3.00;;;;;16.96;67.11;101186.44;5076680;28;45701;-89
2021/09/24 04:16:12;;;;;;;;;3.75;3.00;;;;;16.98;67.35;101188.00;5079798;27;45862;-87
2021/09/24 04:18:38;;;;;;;;;3.75;3.00;;;;;17.02;67.43;101183.25;5080459;27;45596;-87
2021/09/24 04:21:03;;;;;;;;;4.00;4.00;;;;;17.03;67.25;101177.00;5081780;27;46028;-89
2021/09/24 04:23:29;;;;;;;;;4.75;4.75;;;;;17.06;66.92;101182.00;5081545;28;45746;-89
2021/09/24 04:29:17;;;;;;;;;6.75;5.75;;;;;17.12;67.42;101187.59;5081935;28;45692;-88
2021/09/24 04:31:42;;;;;;;;;6.25;5.25;;;;;17.21;66.86;101185.97;5079927;27;45660;-85
2021/09/24 04:34:09;;;;;;;;;6.25;5.00;;;;;17.23;66.85;101194.59;5081293;27;45642;-84
2021/09/24 04:36:35;;;;;;;;;6.25;5.50;;;;;17.17;67.15;101173.94;5090923;27;46314;-88
2021/09/24 04:39:02;;;;;;;;;5.00;5.00;;;;;17.27;66.88;101187.22;5095596;27;47131;-87
2021/09/24 04:41:27;;;;;;;;;8.25;6.50;;;;;17.30;66.84;101192.22;5097514;27;45554;-78
2021/09/24 04:43:53;;;;;;;;;14.00;14.00;;;;;17.30;66.71;101194.88;5098254;27;45403;-85
2021/09/24 04:46:18;;;;;;;;;13.25;12.50;;;;;17.29;66.97;101191.38;5097009;27;45496;-87
2021/09/24 04:48:44;;;;;;;;;18.50;17.50;;;;;17.32;67.26;101201.72;5096160;27;45530;-89
2021/09/24 04:51:09;;;;;;;;;16.00;14.25;;;;;17.34;66.87;101201.56;5097485;27;44938;-87
2021/09/24 04:53:35;;;;;;;;;12.25;12.25;;;;;17.36;67.03;101202.28;5100193;27;45289;-86
2021/09/24 04:59:23;;;;;;;;;9.50;7.50;;;;;17.39;66.74;101202.00;5098860;28;45331;-89
2021/09/24 05:01:49;;;;;;;;;5.00;5.00;;;;;17.39;66.90;101197.53;5098367;28;45796;-88
2021/09/24 05:04:14;;;;;;;;;7.50;7.00;;;;;17.14;66.76;101153.88;5100108;27;45222;-89
2021/09/24 05:06:39;;;;;;;;;6.00;5.75;;;;;17.40;66.99;101199.22;5099801;28;45596;-83
2021/09/24 05:09:05;;;;;;;;;7.50;6.75;;;;;17.31;66.95;101185.97;5089707;27;45502;-89
2021/09/24 05:11:31;;;;;;;;;7.25;6.00;;;;;17.37;66.72;101183.59;5089481;27;45656;-84
2021/09/24 05:13:56;;;;;;;;;6.00;5.75;;;;;17.44;67.00;101190.00;5089699;28;45482;-86
2021/09/24 05:16:21;;;;;;;;;5.50;5.00;;;;;17.48;66.87;101191.41;5097248;27;45456;-88
2021/09/24 05:18:47;;;;;;;;;6.50;5.25;;;;;17.50;66.54;101186.81;5096851;27;45149;-87
2021/09/24 05:21:12;;;;;;;;;5.75;5.75;;;;;17.49;66.71;101185.13;5097360;27;45552;-85
2021/09/24 05:23:38;;;;;;;;;6.75;5.25;;;;;17.50;66.79;101176.19;5091871;28;45550;-89
2021/09/24 05:29:27;;;;;;;;;5.75;4.50;;;;;17.58;66.68;101191.41;5080857;28;45668;-81
2021/09/24 05:31:53;;;;;;;;;6.50;5.75;;;;;17.59;66.42;101188.66;5079745;27;45622;-87
2021/09/24 05:34:19;;;;;;;;;5.25;4.75;;;;;17.61;66.38;101189.34;5077495;28;45521;-82
2021/09/24 05:36:45;;;;;;;;;6.00;5.75;;;;;17.52;66.12;101168.97;5078467;28;46299;-88
2021/09/24 05:39:11;;;;;;;;;9.50;6.25;;;;;17.55;66.38;101167.84;5076699;28;46888;-81
2021/09/24 05:44:58;;;;;;;;;6.00;5.25;;;;;17.66;66.65;101170.38;5079277;28;45785;-83
2021/09/24 05:47:23;;;;;;;;;7.75;6.00;;;;;17.66;66.49;101173.03;5077471;27;45589;-76
2021/09/24 05:49:49;;;;;;;;;6.00;6.00;;;;;17.72;66.55;101176.91;5075536;27;46530;-77
2021/09/24 05:52:14;;;;;;;;;7.00;7.00;;;;;17.69;65.93;101169.25;5076070;27;45665;-77
2021/09/24 05:54:39;;;;;;;;;6.50;5.50;;;;;17.77;66.03;101177.31;5076270;27;45493;-77
2021/09/24 05:57:05;;;;;;;;;8.25;6.50;;;;;17.77;66.09;101174.69;5075681;27;46564;-78
2021/09/24 05:59:30;;;;;;;;;6.25;5.25;;;;;17.80;66.37;101177.91;5075740;27;45751;-80
2021/09/24 06:01:59;;;;;;;;;6.00;5.00;;;;;17.76;66.28;101171.19;5076067;27;45699;-77
2021/09/24 06:04:25;;;;;;;;;7.50;7.25;;;;;17.85;65.94;101182.78;5075958;27;45533;-80
2021/09/24 06:06:50;;;;;;;;;6.50;6.50;;;;;17.86;65.88;101189.75;5075590;27;45677;-78
2021/09/24 06:09:16;;;;;;;;;9.25;8.50;;;;;17.68;65.98;101157.81;5075607;27;46138;-79
2021/09/24 06:15:04;;;;;;;;;10.75;9.25;;;;;17.87;65.95;101189.59;5063809;28;45822;-78
2021/09/24 06:17:30;;;;;;;;;9.00;7.50;;;;;17.83;65.88;101176.78;5075372;28;46924;-78
2021/09/24 06:19:56;;;;;;;;;11.75;9.25;;;;;17.71;66.14;101160.19;5075335;27;46017;-78
2021/09/24 06:22:25;;;;;;;;;10.00;9.75;;;;;17.87;66.29;101191.41;5075442;28;45713;-78
2021/09/24 06:24:51;;;;;;;;;12.50;11.00;;;;;17.89;65.94;101189.47;5075355;28;45678;-77
2021/09/24 06:27:18;;;;;;;;;13.25;9.75;;;;;17.89;66.02;101186.81;5075119;28;45536;-77
2021/09/24 06:29:49;;;;;;;;;10.50;9.50;;;;;17.89;66.30;101186.81;5075072;27;45979;-78
2021/09/24 06:32:16;;;;;;;;;12.00;9.50;;;;;17.88;66.14;101185.97;5074875;27;45731;-79
2021/09/24 06:34:43;;;;;;;;;12.00;10.25;;;;;17.88;66.29;101185.97;5074778;27;45458;-77
2021/09/24 06:37:09;;;;;;;;;12.75;10.00;;;;;17.89;65.82;101190.31;5075271;27;46443;-77
2021/09/24 06:39:35;;;;;;;;;10.25;9.00;;;;;17.89;66.28;101182.34;5074721;27;46543;-77
2021/09/24 06:45:23;;;;;;;;;10.75;10.25;;;;;17.83;66.41;101182.06;5074614;28;45533;-76
2021/09/24 06:47:49;;;;;;;;;10.75;10.25;;;;;17.72;66.37;101161.84;5074472;27;45607;-79
2021/09/24 06:50:14;;;;;;;;;14.50;13.00;;;;;17.85;66.37;101199.53;5074849;27;45679;-77
2021/09/24 06:52:40;;;;;;;;;10.50;10.50;;;;;17.85;66.13;101182.78;5074810;27;45574;-78
2021/09/24 06:55:06;;;;;;;;;15.00;12.25;;;;;17.85;65.93;101188.09;5074890;27;45566;-77
2021/09/24 06:57:32;;;;;;;;;12.00;10.00;;;;;17.86;66.24;101192.41;5074593;28;45741;-76
2021/09/24 06:59:57;;;;;;;;;13.75;10.00;;;;;17.87;65.97;101188.75;5074889;27;45600;-77
2021/09/24 07:02:23;;;;;;;;;10.75;10.50;;;;;17.88;66.37;101185.97;5075012;27;45583;-76
2021/09/24 07:04:49;;;;;;;;;12.75;11.75;;;;;17.87;66.43;101183.44;5074460;27;45490;-77
2021/09/24 07:07:14;;;;;;;;;16.00;10.75;;;;;17.93;65.88;101193.50;5074139;28;47479;-78
2021/09/24 07:09:40;;;;;;;;;11.75;11.00;;;;;17.93;66.42;101185.53;5074328;27;46757;-76
2021/09/24 07:15:27;;;;;;;;;13.25;12.75;;;;;17.98;65.81;101189.44;5070079;28;45710;-78
2021/09/24 07:17:52;;;;;;;;;14.75;12.00;;;;;18.00;65.66;101190.16;5074134;27;47245;-76
2021/09/24 07:20:17;;;;;;;;;13.25;11.50;;;;;18.01;65.99;101188.34;5072879;28;47069;-77
2021/09/24 07:22:44;;;;;;;;;13.50;10.50;;;;;17.96;65.96;101183.47;5074967;27;45592;-77
2021/09/24 07:25:10;;;;;;;;;12.25;9.75;;;;;18.04;65.66;101188.03;5078158;27;45525;-78
2021/09/24 07:27:35;;;;;;;;;11.75;10.75;;;;;18.05;65.66;101192.38;5078288;27;45652;-77
2021/09/24 07:30:01;;;;;;;;;13.00;11.00;;;;;18.06;65.88;101194.03;5077261;27;45434;-77
2021/09/24 07:32:26;;;;;;;;;11.50;10.50;;;;;18.04;65.70;101191.53;5075843;27;45457;-77
2021/09/24 07:34:52;;;;;;;;;12.00;12.00;;;;;18.00;65.60;101178.69;5075361;27;45586;-77
2021/09/24 07:37:17;;;;;;;;;12.50;12.25;;;;;18.07;66.11;101185.13;5074344;27;45550;-77
2021/09/24 07:39:43;;;;;;;;;15.00;12.25;;;;;18.02;65.69;101171.44;5074160;28;46291;-77
2021/09/24 07:45:30;;;;;;;;;14.50;13.00;;;;;18.07;65.61;101165.72;5074550;28;45562;-78
2021/09/24 07:47:56;;;;;;;;;11.00;10.50;;;;;18.11;65.99;101177.69;5074354;27;46032;-77
2021/09/24 07:50:21;;;;;;;;;14.75;13.00;;;;;18.14;65.88;101172.94;5074337;27;46130;-77
2021/09/24 07:52:46;;;;;;;;;16.00;14.75;;;;;18.16;65.90;101170.13;5074042;27;45635;-76
2021/09/24 07:55:12;;;;;;;;;14.50;12.75;;;;;18.15;65.79;101174.59;5074234;27;45629;-77
2021/09/24 08:00:59;;;;;;;;;12.00;11.75;;;;;18.23;66.00;101184.50;5073781;28;45864;-77
2021/09/24 08:03:25;;;;;;;;;13.50;13.00;;;;;18.21;65.93;101170.53;5074173;27;45579;-77
2021/09/24 08:05:51;;;;;;;;;14.75;11.00;;;;;18.27;65.73;101184.06;5074300;27;45493;-78
2021/09/24 08:08:16;;;;;;;;;13.00;13.00;;;;;18.24;65.28;101179.06;5074059;27;45436;-77
2021/09/24 08:10:42;;;;;;;;;13.50;12.50;;;;;18.35;65.15;101186.81;5074024;27;45628;-78
2021/09/24 08:13:07;;;;;;;;;12.75;10.75;;;;;18.38;65.14;101191.84;5073979;27;45629;-77
2021/09/24 08:15:35;;;;;;;;;14.25;12.75;;;;;18.37;65.31;101190.19;5073932;27;45458;-77
2021/09/24 08:18:00;;;;;;;;;16.50;14.25;;;;;18.45;65.01;101194.78;5073726;27;45659;-78
2021/09/24 08:20:26;;;;;;;;;12.25;10.50;;;;;18.49;64.96;101197.97;5073726;27;46204;-77
2021/09/24 08:22:51;;;;;;;;;13.50;12.75;;;;;18.52;64.81;101195.84;5073851;27;45639;-77
2021/09/24 08:25:19;;;;;;;;;14.00;12.75;;;;;18.56;64.91;101202.59;5073837;27;46053;-78
2021/09/24 08:31:06;;;;;;;;;13.00;11.75;;;;;18.64;65.21;101207.16;5073640;28;46118;-76
2021/09/24 08:33:32;;;;;;;;;12.25;12.00;;;;;18.67;64.74;101204.22;5073719;27;45666;-78
2021/09/24 08:35:57;;;;;;;;;15.00;13.00;;;;;18.70;64.53;101204.75;5073704;27;45804;-77
2021/09/24 08:38:24;;;;;;;;;18.50;15.25;;;;;18.62;64.84;101177.28;5076860;27;46408;-76
2021/09/24 08:40:50;;;;;;;;;20.00;17.50;;;;;18.77;64.66;101197.88;5076942;27;46184;-76
2021/09/24 08:43:15;;;;;;;;;13.75;13.00;;;;;18.81;64.42;101199.25;5076962;27;45772;-77
2021/09/24 08:45:42;;;;;;;;;13.50;12.25;;;;;18.85;64.40;101202.44;5076748;27;45811;-78
2021/09/24 08:48:12;;;;;;;;;10.75;10.25;;;;;18.89;64.38;101201.19;5076535;27;46612;-77
2021/09/24 08:50:39;;;;;;;;;17.75;13.75;;;;;18.93;64.80;101201.69;5075142;28;46020;-77
2021/09/24 08:53:06;;;;;;;;;12.75;12.00;;;;;18.98;64.23;101202.09;5076797;27;45537;-77
2021/09/24 08:55:33;;;;;;;;;15.50;12.75;;;;;19.03;63.98;101207.78;5076672;27;45937;-76
2021/09/24 09:01:20;;;;;;;;;12.25;9.25;;;;;19.04;64.12;101197.03;5076447;28;45763;-76
2021/09/24 09:03:47;;;;;;;;;11.00;10.25;;;;;19.12;64.30;101210.38;5076624;27;45540;-77
2021/09/24 09:06:17;;;;;;;;;10.50;9.50;;;;;19.15;63.94;101207.44;5076807;27;45576;-76
2021/09/24 09:08:44;;;;;;;;;11.00;10.25;;;;;19.18;63.73;101203.63;5076548;27;46359;-76
2021/09/24 09:11:19;;;;;;;;;11.50;10.50;;;;;19.22;63.89;101205.84;5076418;27;46436;-77
2021/09/24 09:13:47;;;;;;;;;10.75;9.75;;;;;19.26;63.57;101206.41;5076353;27;45551;-77
2021/09/24 09:16:18;;;;;;;;;9.75;8.50;;;;;19.26;63.69;101201.91;5076226;27;45783;-78
2021/09/24 09:18:47;;;;;;;;;11.50;10.75;;;;;19.34;63.63;101210.94;5076171;28;47465;-78
2021/09/24 09:21:16;;;;;;;;;12.00;11.75;;;;;19.35;63.85;101210.78;5076484;27;47130;-76
2021/09/24 09:23:48;;;;;;;;;9.25;8.75;;;;;19.34;63.61;101200.31;5076554;27;45676;-79
2021/09/24 09:26:15;;;;;;;;;10.25;8.50;;;;;19.42;63.47;101211.03;5076351;27;45726;-79
2021/09/24 09:28:53;;;;;;;;;14.00;11.00;;;;;19.46;63.25;101210.59;5076406;27;45583;-78
2021/09/24 09:31:26;;;;;;;;;13.25;12.00;;;;;19.50;63.08;101204.00;5076214;27;45958;-77
2021/09/24 09:33:58;;;;;;;;;12.50;10.00;;;;;19.53;63.40;101200.22;5076781;27;45710;-77
2021/09/24 09:36:31;;;;;;;;;13.00;11.50;;;;;19.58;63.42;101200.59;5078262;27;45647;-77
2021/09/24 09:38:57;;;;;;;;;13.00;11.50;;;;;19.64;63.28;101205.28;5077762;27;46707;-75
2021/09/24 09:41:25;;;;;;;;;13.00;10.75;;;;;19.68;63.06;101201.34;5077143;28;45978;-76
2021/09/24 09:44:01;;;;;;;;;11.25;11.25;;;;;19.70;63.10;101204.69;5077512;27;45482;-77
2021/09/24 09:46:32;;;;;;;;;12.25;11.00;;;;;19.75;63.05;101198.91;5075744;28;45605;-78
2021/09/24 09:49:00;;;;;;;;;13.75;12.25;;;;;19.80;62.81;101196.63;5075082;27;46747;-77
2021/09/24 09:51:26;;;;;;;;;14.00;12.25;;;;;19.84;63.14;101193.50;5075828;27;47423;-77
2021/09/24 09:53:51;;;;;;;;;12.25;10.25;;;;;19.89;62.88;101193.84;5075505;27;45881;-75
2021/09/24 09:56:18;;;;;;;;;13.00;10.75;;;;;19.93;63.00;101192.56;5075785;27;46054;-75
2021/09/24 09:58:45;;;;;;;;;11.50;10.50;;;;;19.98;62.72;101197.41;5075268;27;46381;-77
2021/09/24 10:01:16;;;;;;;;;10.50;8.00;;;;;19.99;62.91;101194.59;5075509;27;46139;-77
2021/09/24 10:03:41;;;;;;;;;9.00;9.00;;;;;20.05;62.55;101188.66;5075999;27;45601;-77
2021/09/24 10:06:21;;;;;;;;;14.00;13.50;;;;;20.09;62.57;101187.34;5075727;27;45858;-77
2021/09/24 10:08:51;;;;;;;;;12.25;10.50;;;;;20.13;62.25;101185.22;5075566;28;46412;-77
2021/09/24 10:11:19;;;;;;;;;12.00;10.25;;;;;20.11;62.16;101176.56;5075228;27;46672;-78
2021/09/24 10:13:59;;;;;;;;;12.50;10.25;;;;;20.21;62.08;101193.25;5075799;27;45530;-78
2021/09/24 10:16:34;;;;;;;;;11.00;9.25;;;;;20.25;61.89;101199.06;5075546;28;45624;-78
2021/09/24 10:18:59;;;;;;;;;14.00;11.00;;;;;20.28;61.80;101188.97;5075332;27;45593;-79
2021/09/24 10:21:26;;;;;;;;;12.75;9.75;;;;;20.31;61.93;101187.81;5075312;27;46060;-77
2021/09/24 10:23:52;;;;;;;;;15.00;14.75;;;;;20.33;61.77;101184.03;5075220;27;45628;-78
2021/09/24 10:26:35;;;;;;;;;13.50;13.25;;;;;20.36;61.28;101193.53;5075408;27;46067;-77
2021/09/24 10:29:13;;;;;;;;;12.75;12.75;;;;;20.37;61.27;101185.38;5075320;27;46733;-77
2021/09/24 10:31:42;;;;;;;;;11.25;10.50;;;;;20.37;61.04;101184.56;5075249;27;45886;-77
2021/09/24 10:34:08;;;;;;;;;10.25;9.00;;;;;20.40;60.93;101189.56;5075335;27;45464;-77
2021/09/24 10:36:50;;;;;;;;;11.25;10.25;;;;;20.39;60.77;101187.91;5075560;27;45533;-77
2021/09/24 10:39:31;;;;;;;;;10.00;9.75;;;;;20.38;60.59;101189.72;5075585;27;45878;-76
2021/09/24 10:42:15;;;;;;;;;15.00;13.25;;;;;20.38;60.40;101188.88;5075417;27;45993;-78
2021/09/24 10:45:28;;;;;;;;;13.00;12.00;;;;;20.36;60.52;101183.72;5075387;28;45605;-78
2021/09/24 10:48:06;;;;;;;;;11.75;10.25;;;;;20.27;60.10;101170.50;5072981;28;45675;-76
2021/09/24 10:53:19;;;;;;;;;12.00;10.00;;;;;20.37;60.03;101173.91;5072948;28;46098;-78
2021/09/24 10:55:53;;;;;;;;;14.25;13.25;;;;;20.42;59.99;101179.59;5072769;28;45839;-79
2021/09/24 10:58:27;;;;;;;;;16.00;13.75;;;;;20.44;60.04;101177.59;5073675;28;45798;-78
2021/09/24 11:01:05;;;;;;;;;12.75;12.50;;;;;20.36;59.82;101151.78;5072553;28;46924;-78
2021/09/24 11:03:32;;;;;;;;;13.75;12.25;;;;;20.42;59.69;101153.81;5075632;28;46111;-78
2021/09/24 11:06:08;;;;;;;;;10.50;9.75;;;;;20.47;59.51;101166.63;5078472;28;45525;-78
2021/09/24 11:08:37;;;;;;;;;14.00;13.75;;;;;20.51;59.59;101168.81;5078133;28;45574;-78
2021/09/24 11:11:07;;;;;;;;;12.50;11.75;;;;;20.55;59.47;101165.84;5074064;28;45736;-78
2021/09/24 11:13:35;;;;;;;;;10.25;10.00;;;;;20.49;59.24;101138.03;5072930;28;45870;-76
2021/09/24 11:16:04;;;;;;;;;11.75;11.00;;;;;20.63;59.42;101158.72;5072340;28;45660;-76
2021/09/24 11:18:53;;;;;;;;;10.25;9.25;;;;;20.64;59.29;101143.56;5072808;28;45543;-77
2021/09/24 11:21:18;;;;;;;;;12.25;11.50;;;;;20.74;59.43;101147.75;5072410;28;46657;-76
2021/09/24 11:23:45;;;;;;;;;10.75;9.75;;;;;20.80;59.20;101141.78;5073174;28;46067;-77
2021/09/24 11:29:36;;;;;;;;;10.00;9.25;;;;;20.86;58.52;101129.66;5074561;28;45674;-78
2021/09/24 11:32:04;;;;;;;;;11.25;10.00;;;;;20.97;58.36;101142.69;5074430;28;45668;-78
2021/09/24 11:34:56;;;;;;;;;12.50;10.50;;;;;21.01;58.62;101148.50;5074777;27;45919;-77
2021/09/24 11:37:30;;;;;;;;;11.25;10.00;;;;;21.03;58.35;101135.84;5074447;28;45633;-79
2021/09/24 11:40:03;;;;;;;;;10.50;7.75;;;;;21.09;58.19;101138.72;5074981;28;45586;-77
2021/09/24 11:45:51;;;;;;;;;12.00;11.50;;;;;21.22;58.21;101128.41;5075875;28;45664;-76
2021/09/24 11:48:30;;;;;;;;;9.25;8.25;;;;;21.26;58.00;101121.78;5076676;28;45691;-77
2021/09/24 11:51:06;;;;;;;;;11.75;11.25;;;;;21.30;58.19;101114.28;5073419;28;45672;-78
2021/09/24 11:53:43;;;;;;;;;11.75;10.00;;;;;21.25;58.36;101104.13;5072457;28;45610;-78
2021/09/24 11:56:08;;;;;;;;;9.50;8.00;;;;;21.39;58.22;101112.44;5072299;28;45967;-77
2021/09/24 12:01:55;;;;;;;;;10.50;10.00;;;;;21.46;57.44;101098.28;5072249;28;45543;-77
2021/09/24 12:04:20;;;;;;;;;9.25;9.25;;;;;21.42;57.56;101091.63;5071765;28;46458;-77
2021/09/24 12:06:47;;;;;;;;;11.00;10.00;;;;;21.53;56.91;101101.13;5071712;28;46798;-78
2021/09/24 12:09:17;;;;;;;;;14.50;13.00;;;;;21.52;57.21;101102.94;5054732;28;45725;-77
2021/09/24 12:11:46;;;;;;;;;10.00;9.25;;;;;21.57;56.88;101099.75;5073268;28;45582;-78
2021/09/24 12:14:13;;;;;;;;;11.75;10.50;;;;;21.57;56.74;101099.75;5076046;28;46342;-77
2021/09/24 12:16:41;;;;;;;;;8.75;8.00;;;;;21.59;56.73;101100.44;5077283;27;46267;-77
2021/09/24 12:19:10;;;;;;;;;9.00;9.00;;;;;21.59;57.10;101095.91;5077287;27;45697;-77
2021/09/24 12:21:38;;;;;;;;;12.25;10.50;;;;;21.63;56.74;101101.75;5077605;27;45569;-77
2021/09/24 12:24:12;;;;;;;;;9.00;8.50;;;;;21.64;56.71;101104.28;5077436;27;47291;-77
2021/09/24 12:26:41;;;;;;;;;10.25;9.50;;;;;21.63;55.72;101094.59;5077290;27;46353;-78
2021/09/24 12:29:09;;;;;;;;;10.00;9.50;;;;;21.63;56.03;101091.94;5077367;27;45803;-78
2021/09/24 12:31:40;;;;;;;;;7.25;6.00;;;;;21.66;56.13;101094.25;5077548;27;45590;-76
2021/09/24 12:34:07;;;;;;;;;10.75;10.25;;;;;21.67;56.21;101087.91;5077082;27;45599;-78
2021/09/24 12:36:32;;;;;;;;;12.25;9.75;;;;;21.68;55.92;101089.59;5075635;28;46310;-77
2021/09/24 12:39:12;;;;;;;;;9.50;9.50;;;;;21.73;56.60;101091.75;5075438;28;45544;-78